Capitol Logistics 406




KBNA
Nashville International Airport
Nashville, Tennessee
KRFD
Chicago/Rockford International Airport
Rockford, Illinois

Activity Log

Date Flight Route Aircraft Duration
09/04/2020 CPX406 HGGRD PXV J73 GUIDO JOT B738 1h 18m
11/14/2019 CPX406 N0406F350 HGGRD3 TINGS J29 PXV/N0420F340 PNT/N0330A160 V9 SMARS V128 RFD B738 1h 32m
09/25/2019 CPX406 N0451F410 HGGRD3 TINGS J29 PXV/N0453F400 PNT V9 SMARS V128 RFD B752 1h 15m
06/23/2019 CPX406 HGGRD PXV J73 GUIDO JOT B752 1h 07m
06/06/2019 CPX406 HGGRD PXV J73 GUIDO JOT B752 1h 32m
02/19/2019 CPX406 HGGRD PXV J73 GUIDO JOT B752 1h 16m

Route Details

Aircraft Information
Primary: Boeing 737-800BCF
Backup: Boeing 757-200SF
Route Data
Distance: 381nm
Duration: 1h 00m
Recm'd Route: HGGRD PXV J73 GUIDO JOT
Origin Wx: KBNA 180253Z 33006KT 10SM SCT090 13/06 A2997 RMK AO2 SLP146 T01330056 51012
Dest. Wx: KRFD 180254Z 11005KT 10SM BKN250 08/M01 A2998 RMK AO2 SLP155 T00781006 53008
Notes: